createdAt,value
2022-12-11T00:01:28.982Z,89.21
2022-12-11T00:03:55.837Z,89.69
2022-12-11T00:06:23.181Z,89.07
2022-12-11T00:08:53.989Z,89.78
2022-12-11T00:11:23.347Z,90.10
2022-12-11T00:13:50.035Z,89.92
2022-12-11T00:16:23.778Z,90.13
2022-12-11T00:18:55.827Z,90.12
2022-12-11T00:21:22.447Z,88.62
2022-12-11T00:23:49.172Z,88.48
2022-12-11T00:26:18.269Z,88.67
2022-12-11T00:28:45.193Z,88.57
2022-12-11T00:31:13.638Z,88.67
2022-12-11T00:33:41.196Z,89.49
2022-12-11T00:36:37.351Z,89.40
2022-12-11T00:39:06.929Z,89.89
2022-12-11T00:41:33.612Z,88.76
2022-12-11T00:44:00.368Z,87.97
2022-12-11T00:46:29.802Z,88.15
2022-12-11T00:48:56.430Z,89.41
2022-12-11T00:51:25.936Z,88.27
2022-12-11T00:53:57.509Z,88.89
2022-12-11T00:56:24.726Z,88.95
2022-12-11T00:58:53.696Z,87.73
2022-12-11T01:01:21.615Z,88.38
2022-12-11T01:03:48.631Z,87.68
2022-12-11T01:06:19.548Z,87.48
2022-12-11T01:08:48.324Z,88.04
2022-12-11T01:11:15.676Z,87.04
2022-12-11T01:13:42.829Z,87.49
2022-12-11T01:16:10.528Z,87.21
2022-12-11T01:18:39.743Z,87.59
2022-12-11T01:21:07.429Z,89.08
2022-12-11T01:23:34.069Z,89.13
2022-12-11T01:26:11.463Z,89.03
2022-12-11T01:28:38.130Z,88.61
2022-12-11T01:31:08.705Z,87.93
2022-12-11T01:33:35.308Z,88.40
2022-12-11T01:36:01.906Z,88.20
2022-12-11T01:38:28.518Z,87.93
2022-12-11T01:40:55.436Z,88.20
2022-12-11T01:43:22.032Z,88.53
2022-12-11T01:45:48.924Z,88.52
2022-12-11T01:48:20.461Z,88.79
2022-12-11T01:50:47.065Z,89.55
2022-12-11T01:53:14.209Z,89.10
2022-12-11T01:55:40.839Z,88.91
2022-12-11T01:58:07.467Z,89.38
2022-12-11T02:00:36.571Z,89.97
2022-12-11T02:03:03.261Z,90.18
2022-12-11T02:05:32.404Z,89.82
2022-12-11T02:08:03.585Z,90.41
2022-12-11T02:10:38.846Z,90.06
2022-12-11T02:13:08.196Z,89.09
2022-12-11T02:15:46.942Z,89.19
2022-12-11T02:18:29.572Z,87.91
2022-12-11T02:21:04.127Z,88.40
2022-12-11T02:23:49.658Z,88.10
2022-12-11T02:26:24.764Z,88.45
2022-12-11T02:28:54.729Z,87.83
2022-12-11T02:31:24.392Z,87.88
2022-12-11T02:33:53.949Z,89.54
2022-12-11T02:36:24.469Z,89.33
2022-12-11T02:38:51.923Z,89.85
2022-12-11T02:41:19.184Z,90.18
2022-12-11T02:43:45.911Z,89.22
2022-12-11T02:46:12.576Z,88.59
2022-12-11T02:48:40.163Z,88.49
2022-12-11T02:51:09.149Z,89.14
2022-12-11T02:53:36.138Z,86.80
2022-12-11T02:56:13.440Z,87.57
2022-12-11T02:58:52.712Z,88.18
2022-12-11T03:01:23.618Z,88.80
2022-12-11T03:03:53.049Z,86.13
2022-12-11T03:06:20.454Z,86.83
2022-12-11T03:08:52.077Z,86.29
2022-12-11T03:11:18.739Z,86.03
2022-12-11T03:13:45.545Z,86.53
2022-12-11T03:16:14.504Z,86.61
2022-12-11T03:18:52.811Z,85.01
2022-12-11T03:21:27.892Z,85.22
2022-12-11T03:23:57.433Z,85.72
2022-12-11T03:26:27.206Z,85.16
2022-12-11T03:29:03.673Z,85.46
2022-12-11T03:31:36.333Z,85.26
2022-12-11T03:34:06.627Z,84.77
2022-12-11T03:36:34.292Z,84.48
2022-12-11T03:39:06.513Z,83.68
2022-12-11T03:41:33.468Z,84.01
2022-12-11T03:44:00.079Z,83.73
2022-12-11T03:46:35.322Z,84.19
2022-12-11T03:49:05.748Z,83.35
2022-12-11T03:51:32.355Z,81.54
2022-12-11T03:53:58.934Z,82.20
2022-12-11T03:56:25.479Z,82.60
2022-12-11T03:58:52.021Z,81.00
2022-12-11T04:01:18.630Z,82.57
2022-12-11T04:03:47.583Z,82.19
2022-12-11T04:06:17.089Z,81.29
2022-12-11T04:08:46.022Z,82.04
2022-12-11T04:11:31.183Z,82.26
2022-12-11T04:14:16.361Z,82.48
2022-12-11T04:16:42.977Z,81.95
2022-12-11T04:19:28.393Z,82.28
2022-12-11T04:22:33.452Z,82.35
2022-12-11T04:25:03.261Z,83.08
2022-12-11T04:27:48.855Z,82.64
2022-12-11T04:30:17.161Z,82.22
2022-12-11T04:32:46.210Z,82.84
2022-12-11T04:35:13.285Z,82.16
2022-12-11T04:37:40.022Z,83.52
2022-12-11T04:40:07.617Z,83.08
2022-12-11T04:42:34.165Z,83.61
2022-12-11T04:45:00.701Z,83.66
2022-12-11T04:47:32.759Z,83.39
2022-12-11T04:49:59.295Z,82.88
2022-12-11T04:52:25.941Z,82.51
2022-12-11T04:54:52.568Z,82.61
2022-12-11T04:57:23.036Z,83.00
2022-12-11T04:59:49.599Z,82.32
2022-12-11T05:02:16.670Z,82.55
2022-12-11T05:04:43.347Z,82.01
2022-12-11T05:07:10.117Z,82.42
2022-12-11T05:09:36.772Z,82.26
2022-12-11T05:12:03.514Z,80.90
2022-12-11T05:14:32.078Z,81.21
2022-12-11T05:17:01.240Z,81.99
2022-12-11T05:19:30.366Z,80.31
2022-12-11T05:21:56.878Z,80.79
2022-12-11T05:24:23.502Z,80.03
2022-12-11T05:26:50.040Z,79.38
2022-12-11T05:29:16.631Z,79.38
2022-12-11T05:31:43.284Z,80.44
2022-12-11T05:34:09.890Z,79.98
2022-12-11T05:36:36.673Z,79.76
2022-12-11T05:39:06.154Z,80.34
2022-12-11T05:41:33.029Z,80.01
2022-12-11T05:43:59.823Z,80.02
2022-12-11T05:46:27.159Z,79.31
2022-12-11T05:48:58.188Z,78.95
2022-12-11T05:51:25.174Z,79.20
2022-12-11T05:53:52.404Z,79.50
2022-12-11T05:56:24.438Z,79.20
2022-12-11T05:58:51.237Z,79.54
2022-12-11T06:01:27.568Z,79.31
2022-12-11T06:03:54.889Z,79.00
2022-12-11T06:06:21.429Z,79.11
2022-12-11T06:08:51.648Z,79.76
2022-12-11T06:11:23.633Z,79.55
2022-12-11T06:13:53.051Z,78.85
2022-12-11T06:16:24.718Z,80.15
2022-12-11T06:18:52.311Z,79.16
2022-12-11T06:21:22.438Z,78.99
2022-12-11T06:23:50.247Z,78.75
2022-12-11T06:26:17.283Z,78.91
2022-12-11T06:28:43.867Z,78.66
2022-12-11T06:31:10.560Z,78.37
2022-12-11T06:33:38.981Z,78.37
2022-12-11T06:36:06.375Z,78.09
2022-12-11T06:38:35.576Z,77.96
2022-12-11T06:41:07.438Z,78.29
2022-12-11T06:43:38.104Z,78.48
2022-12-11T06:46:07.325Z,78.07
2022-12-11T06:48:36.560Z,78.92
2022-12-11T06:51:06.966Z,77.78
2022-12-11T06:53:33.734Z,78.34
2022-12-11T06:56:06.677Z,77.53
2022-12-11T06:58:33.966Z,78.24
2022-12-11T07:01:02.967Z,78.17
2022-12-11T07:03:29.671Z,77.67
2022-12-11T07:06:02.515Z,77.61
2022-12-11T07:08:29.729Z,78.21
2022-12-11T07:11:05.560Z,76.74
2022-12-11T07:13:32.305Z,76.66
2022-12-11T07:16:02.079Z,76.87
2022-12-11T07:18:28.806Z,76.04
2022-12-11T07:20:57.437Z,76.93
2022-12-11T07:23:24.261Z,76.44
2022-12-11T07:25:50.906Z,75.52
2022-12-11T07:28:17.413Z,74.42
2022-12-11T07:30:46.524Z,74.56
2022-12-11T07:33:15.601Z,74.46
2022-12-11T07:35:42.193Z,76.01
2022-12-11T07:38:08.730Z,74.49
2022-12-11T07:40:35.333Z,75.00
2022-12-11T07:43:02.317Z,73.00
2022-12-11T07:45:29.612Z,73.16
2022-12-11T07:47:59.105Z,73.05
2022-12-11T07:50:35.126Z,73.65
2022-12-11T07:53:10.673Z,71.72
2022-12-11T07:55:37.251Z,72.11
2022-12-11T07:58:06.075Z,71.88
2022-12-11T08:00:32.609Z,71.86
2022-12-11T08:03:04.013Z,71.08
2022-12-11T08:05:30.589Z,71.41
2022-12-11T08:07:57.222Z,72.22
2022-12-11T08:10:23.893Z,72.56
2022-12-11T08:12:50.493Z,72.89
2022-12-11T08:15:17.232Z,73.22
2022-12-11T08:17:44.897Z,71.90
2022-12-11T08:20:11.498Z,71.56
2022-12-11T08:22:40.581Z,71.59
2022-12-11T08:25:09.592Z,70.50
2022-12-11T08:27:36.510Z,70.00
2022-12-11T08:30:03.289Z,70.22
2022-12-11T08:32:32.619Z,70.20
2022-12-11T08:35:01.717Z,69.54
2022-12-11T08:37:29.626Z,69.29
2022-12-11T08:39:56.252Z,69.46
2022-12-11T08:42:25.316Z,70.02
2022-12-11T08:44:51.957Z,69.96
2022-12-11T08:47:24.739Z,69.47
2022-12-11T08:49:55.079Z,69.75
2022-12-11T08:52:21.605Z,69.87
2022-12-11T08:54:48.415Z,70.00
2022-12-11T08:57:15.015Z,68.56
2022-12-11T08:59:41.624Z,68.79
2022-12-11T09:02:13.998Z,68.67
2022-12-11T09:04:40.783Z,69.28
2022-12-11T09:07:07.386Z,69.12
2022-12-11T09:09:33.997Z,69.19
2022-12-11T09:12:01.539Z,69.39
2022-12-11T09:14:31.215Z,67.95
2022-12-11T09:16:57.839Z,68.20
2022-12-11T09:19:32.071Z,68.29
2022-12-11T09:22:11.383Z,67.90
2022-12-11T09:24:38.139Z,67.20
2022-12-11T09:27:09.664Z,66.93
2022-12-11T09:29:36.343Z,67.71
2022-12-11T09:32:02.924Z,67.78
2022-12-11T09:34:31.304Z,67.76
2022-12-11T09:36:58.200Z,67.99
2022-12-11T09:39:27.453Z,67.25
2022-12-11T09:42:13.005Z,68.36
2022-12-11T09:44:53.038Z,66.97
2022-12-11T09:47:28.020Z,67.45
2022-12-11T09:50:16.533Z,67.88
2022-12-11T09:52:44.264Z,67.25
2022-12-11T09:55:17.913Z,67.08
2022-12-11T09:57:47.342Z,66.88
2022-12-11T10:00:22.279Z,66.45
2022-12-11T10:03:07.361Z,65.39
2022-12-11T10:05:39.982Z,66.60
2022-12-11T10:08:13.123Z,66.27
2022-12-11T10:11:01.115Z,67.07
2022-12-11T10:13:42.851Z,66.34
2022-12-11T10:16:16.825Z,66.44
2022-12-11T10:18:43.560Z,65.32
2022-12-11T10:21:14.883Z,65.65
2022-12-11T10:23:46.445Z,64.97
2022-12-11T10:26:19.540Z,64.47
2022-12-11T10:28:46.098Z,65.67
2022-12-11T10:31:28.164Z,65.18
2022-12-11T10:33:56.981Z,66.42
2022-12-11T10:36:28.807Z,65.45
2022-12-11T10:38:57.684Z,66.17
2022-12-11T10:41:28.181Z,65.94
2022-12-11T10:43:57.113Z,66.60
2022-12-11T10:46:29.700Z,66.79
2022-12-11T10:48:59.690Z,66.65
2022-12-11T10:51:31.444Z,67.53
2022-12-11T10:54:07.526Z,67.44
2022-12-11T10:56:36.842Z,67.37
2022-12-11T10:59:05.918Z,67.65
2022-12-11T11:01:32.629Z,67.31
2022-12-11T11:04:06.713Z,66.59
2022-12-11T11:06:33.613Z,67.21
2022-12-11T11:09:01.436Z,67.57
2022-12-11T11:11:28.041Z,68.36
2022-12-11T11:14:25.068Z,67.97
2022-12-11T11:16:55.701Z,67.11
2022-12-11T11:19:27.342Z,67.55
2022-12-11T11:21:59.846Z,67.17
2022-12-11T11:24:43.048Z,67.52
2022-12-11T11:27:14.037Z,67.24
2022-12-11T11:29:43.260Z,66.58
2022-12-11T11:32:20.565Z,66.56
2022-12-11T11:34:49.861Z,66.77
2022-12-11T11:37:25.380Z,66.11
2022-12-11T11:39:58.048Z,66.45
2022-12-11T11:42:38.110Z,65.75
2022-12-11T11:45:33.356Z,65.53
2022-12-11T11:48:11.310Z,66.03
2022-12-11T11:50:38.502Z,65.20
2022-12-11T11:53:06.161Z,64.21
2022-12-11T11:55:42.216Z,64.51
2022-12-11T11:58:27.796Z,65.09
2022-12-11T12:00:54.855Z,65.28
2022-12-11T12:03:21.910Z,65.03
2022-12-11T12:06:09.779Z,65.06
2022-12-11T12:08:55.431Z,64.34
2022-12-11T12:11:40.386Z,65.55
2022-12-11T12:14:51.694Z,63.95
2022-12-11T12:17:36.269Z,65.18
2022-12-11T12:20:20.426Z,64.21
2022-12-11T12:22:52.397Z,64.02
2022-12-11T12:25:22.768Z,63.48
2022-12-11T12:28:06.115Z,63.56
2022-12-11T12:30:37.378Z,63.40
2022-12-11T12:33:07.047Z,63.87
2022-12-11T12:35:43.667Z,63.01
2022-12-11T12:38:11.895Z,63.00
2022-12-11T12:40:48.723Z,64.10
2022-12-11T12:43:24.106Z,63.36
2022-12-11T12:45:55.147Z,63.01
2022-12-11T12:48:24.205Z,62.03
2022-12-11T12:50:51.046Z,63.22
2022-12-11T12:53:22.548Z,62.14
2022-12-11T12:55:49.287Z,63.01
2022-12-11T12:58:28.423Z,63.20
2022-12-11T13:01:07.897Z,62.39
2022-12-11T13:03:36.952Z,61.84
2022-12-11T13:06:04.706Z,63.38
2022-12-11T13:08:34.570Z,61.83
2022-12-11T13:11:02.592Z,61.92
2022-12-11T13:13:35.361Z,62.59
2022-12-11T13:16:17.199Z,62.13
2022-12-11T13:18:54.329Z,62.51
2022-12-11T13:21:28.622Z,61.72
2022-12-11T13:23:55.613Z,61.64
2022-12-11T13:26:37.108Z,61.82
2022-12-11T13:29:04.025Z,62.89
2022-12-11T13:31:33.073Z,62.08
2022-12-11T13:34:10.656Z,61.96
2022-12-11T13:36:37.844Z,60.81
2022-12-11T13:39:24.006Z,60.77
2022-12-11T13:41:56.919Z,61.33
2022-12-11T13:44:25.702Z,62.07
2022-12-11T13:46:52.868Z,62.05
2022-12-11T13:49:38.213Z,62.07
2022-12-11T13:52:07.370Z,63.10
2022-12-11T13:54:34.924Z,63.42
2022-12-11T13:57:03.209Z,62.81
2022-12-11T13:59:31.243Z,63.40
2022-12-11T14:02:01.267Z,63.43
2022-12-11T14:04:28.357Z,63.08
2022-12-11T14:06:55.679Z,64.13
2022-12-11T14:09:23.083Z,63.64
2022-12-11T14:11:55.049Z,63.83
2022-12-11T14:14:35.050Z,63.33
2022-12-11T14:17:02.046Z,63.73
2022-12-11T14:19:29.261Z,63.69
2022-12-11T14:21:57.495Z,62.71
2022-12-11T14:24:24.418Z,62.76
2022-12-11T14:26:51.667Z,63.43
2022-12-11T14:29:25.526Z,63.92
2022-12-11T14:31:52.277Z,63.25
2022-12-11T14:34:23.353Z,63.41
2022-12-11T14:36:50.158Z,64.19
2022-12-11T14:39:31.146Z,64.12
2022-12-11T14:41:57.723Z,63.47
2022-12-11T14:44:24.381Z,63.70
2022-12-11T14:47:10.486Z,64.13
2022-12-11T14:49:41.108Z,63.98
2022-12-11T14:52:14.135Z,65.11
2022-12-11T14:54:46.144Z,64.16
2022-12-11T14:57:20.099Z,65.04
2022-12-11T14:59:47.185Z,65.06
2022-12-11T15:02:24.853Z,63.74
2022-12-11T15:05:10.429Z,64.37
2022-12-11T15:07:37.028Z,63.95
2022-12-11T15:10:04.476Z,64.79
2022-12-11T15:12:33.547Z,65.02
2022-12-11T15:15:03.956Z,65.26
2022-12-11T15:17:30.808Z,65.70
2022-12-11T15:20:02.981Z,65.54
2022-12-11T15:22:33.583Z,65.37
2022-12-11T15:25:00.426Z,65.44
2022-12-11T15:27:39.882Z,65.52
2022-12-11T15:30:27.818Z,65.02
2022-12-11T15:33:09.801Z,64.70
2022-12-11T15:35:37.213Z,64.71
2022-12-11T15:38:04.627Z,64.46
2022-12-11T15:40:33.552Z,63.70
2022-12-11T15:43:03.238Z,64.33
2022-12-11T15:45:29.828Z,64.36
2022-12-11T15:47:57.273Z,63.50
2022-12-11T15:50:30.261Z,63.71
2022-12-11T15:53:00.454Z,63.40
2022-12-11T15:55:29.827Z,62.50
2022-12-11T15:57:59.913Z,62.94
2022-12-11T16:00:28.280Z,63.05
2022-12-11T16:02:55.519Z,63.84
2022-12-11T16:05:22.354Z,63.66
2022-12-11T16:07:49.395Z,62.90
2022-12-11T16:10:17.644Z,63.06
2022-12-11T16:12:44.467Z,62.27
2022-12-11T16:15:20.137Z,62.16
2022-12-11T16:17:49.595Z,62.65
2022-12-11T16:20:17.457Z,62.50
2022-12-11T16:22:44.580Z,62.46
2022-12-11T16:25:11.497Z,62.66
2022-12-11T16:27:38.309Z,61.82
2022-12-11T16:30:07.290Z,61.52
2022-12-11T16:32:33.823Z,62.00
2022-12-11T16:35:01.189Z,62.06
2022-12-11T16:37:30.165Z,62.52
2022-12-11T16:39:56.771Z,61.86
2022-12-11T16:42:28.285Z,61.93
2022-12-11T16:44:54.872Z,62.08
2022-12-11T16:47:21.500Z,60.80
2022-12-11T16:49:50.290Z,61.96
2022-12-11T16:52:21.997Z,60.48
2022-12-11T16:54:49.110Z,60.66
2022-12-11T16:57:18.047Z,61.37
2022-12-11T16:59:44.587Z,60.98
2022-12-11T17:02:11.540Z,61.59
2022-12-11T17:04:38.819Z,61.84
2022-12-11T17:07:07.886Z,61.75
2022-12-11T17:09:35.291Z,62.19
2022-12-11T17:12:02.145Z,61.39
2022-12-11T17:14:28.908Z,62.04
2022-12-11T17:16:55.611Z,62.14
2022-12-11T17:19:22.424Z,61.06
2022-12-11T17:21:52.011Z,61.37
2022-12-11T17:24:21.118Z,61.36
2022-12-11T17:26:52.719Z,60.75
2022-12-11T17:29:19.993Z,59.92
2022-12-11T17:31:46.788Z,61.24
2022-12-11T17:34:15.950Z,61.01
2022-12-11T17:36:46.556Z,61.05
2022-12-11T17:39:13.062Z,60.61
2022-12-11T17:41:39.755Z,60.23
2022-12-11T17:44:06.286Z,60.65
2022-12-11T17:46:32.949Z,60.46
2022-12-11T17:49:00.248Z,61.63
2022-12-11T17:51:27.212Z,61.37
2022-12-11T17:53:55.344Z,61.38
2022-12-11T17:56:22.213Z,60.35
2022-12-11T17:58:51.599Z,60.75
2022-12-11T18:01:18.351Z,61.23
2022-12-11T18:03:47.674Z,61.59
2022-12-11T18:06:14.871Z,61.43
2022-12-11T18:08:41.573Z,62.22
2022-12-11T18:11:15.716Z,61.97
2022-12-11T18:13:42.753Z,62.77
2022-12-11T18:16:13.684Z,61.68
2022-12-11T18:18:42.696Z,62.24
2022-12-11T18:21:12.322Z,62.70
2022-12-11T18:23:38.990Z,61.40
2022-12-11T18:26:05.649Z,61.76
2022-12-11T18:28:32.462Z,60.94
2022-12-11T18:30:59.867Z,61.33
2022-12-11T18:33:26.594Z,61.82
2022-12-11T18:35:53.389Z,60.76
2022-12-11T18:38:22.810Z,61.19
2022-12-11T18:40:50.222Z,61.61
2022-12-11T18:43:16.908Z,61.91
2022-12-11T18:45:45.594Z,62.88
2022-12-11T18:48:12.513Z,62.85
2022-12-11T18:50:43.383Z,62.81
2022-12-11T18:53:10.014Z,62.48
2022-12-11T18:55:40.590Z,63.42
2022-12-11T18:58:07.591Z,63.04
2022-12-11T19:00:37.553Z,63.34
2022-12-11T19:03:07.014Z,63.38
2022-12-11T19:05:38.220Z,61.98
2022-12-11T19:08:05.335Z,63.03
2022-12-11T19:10:31.941Z,63.56
2022-12-11T19:12:59.179Z,63.67
2022-12-11T19:15:27.834Z,63.70
2022-12-11T19:17:56.925Z,63.56
2022-12-11T19:20:48.101Z,63.14
2022-12-11T19:23:10.053Z,63.03
2022-12-11T19:25:46.658Z,62.99
2022-12-11T19:28:13.266Z,63.13
2022-12-11T19:30:49.034Z,63.10
2022-12-11T19:33:16.318Z,62.28
2022-12-11T19:35:42.912Z,62.57
2022-12-11T19:38:09.788Z,63.51
2022-12-11T19:40:43.036Z,62.56
2022-12-11T19:43:10.032Z,62.34
2022-12-11T19:45:37.151Z,62.31
2022-12-11T19:48:03.835Z,62.85
2022-12-11T19:50:30.347Z,63.44
2022-12-11T19:52:59.362Z,63.23
2022-12-11T19:55:28.362Z,63.75
2022-12-11T19:57:55.651Z,64.20
2022-12-11T20:00:24.682Z,63.86
2022-12-11T20:02:51.275Z,63.54
2022-12-11T20:05:17.877Z,63.47
2022-12-11T20:07:45.009Z,64.17
2022-12-11T20:10:11.653Z,64.53
2022-12-11T20:12:38.194Z,64.09
2022-12-11T20:15:07.721Z,64.35
2022-12-11T20:17:34.449Z,64.88
2022-12-11T20:20:05.839Z,64.63
2022-12-11T20:22:32.503Z,64.51
2022-12-11T20:25:03.953Z,64.54
2022-12-11T20:27:33.039Z,65.28
2022-12-11T20:29:59.753Z,65.64
2022-12-11T20:32:26.446Z,66.00
2022-12-11T20:34:56.909Z,64.74
2022-12-11T20:37:26.038Z,64.94
2022-12-11T20:39:52.698Z,65.05
2022-12-11T20:42:19.220Z,64.42
2022-12-11T20:44:49.424Z,65.49
2022-12-11T20:47:16.967Z,65.20
2022-12-11T20:49:43.881Z,64.46
2022-12-11T20:52:12.934Z,65.96
2022-12-11T20:54:42.025Z,65.63
2022-12-11T20:57:08.601Z,65.35
2022-12-11T20:59:37.944Z,65.14
2022-12-11T21:02:05.402Z,65.11
2022-12-11T21:04:32.180Z,65.14
2022-12-11T21:07:00.204Z,65.39
2022-12-11T21:09:27.789Z,65.96
2022-12-11T21:11:56.632Z,65.22
2022-12-11T21:14:26.102Z,65.97
2022-12-11T21:16:55.503Z,65.83
2022-12-11T21:19:22.315Z,65.55
2022-12-11T21:21:49.071Z,65.22
2022-12-11T21:24:16.938Z,65.60
2022-12-11T21:26:45.899Z,65.17
2022-12-11T21:29:12.870Z,66.37
2022-12-11T21:31:42.803Z,66.38
2022-12-11T21:34:09.523Z,66.72
2022-12-11T21:36:40.887Z,66.59
2022-12-11T21:39:09.816Z,66.98
2022-12-11T21:41:36.509Z,67.21
2022-12-11T21:45:21.141Z,67.07
2022-12-11T21:46:50.151Z,67.84
2022-12-11T21:49:16.719Z,67.44
2022-12-11T21:51:48.194Z,67.26
2022-12-11T21:54:16.833Z,67.49
2022-12-11T21:56:46.794Z,66.57
2022-12-11T21:59:15.961Z,67.04
2022-12-11T22:01:43.867Z,66.29
2022-12-11T22:04:10.875Z,66.27
2022-12-11T22:06:37.711Z,67.04
2022-12-11T22:09:05.576Z,66.82
2022-12-11T22:11:33.748Z,67.77
2022-12-11T22:14:02.739Z,67.92
2022-12-11T22:16:29.366Z,66.42
2022-12-11T22:18:55.958Z,66.52
2022-12-11T22:21:22.570Z,67.62
2022-12-11T22:23:49.162Z,67.94
2022-12-11T22:26:18.949Z,68.33
2022-12-11T22:28:45.563Z,68.66
2022-12-11T22:31:12.759Z,68.35
2022-12-11T22:33:39.523Z,67.88
2022-12-11T22:36:11.030Z,67.50
2022-12-11T22:38:37.938Z,67.11
2022-12-11T22:41:11.421Z,67.65
2022-12-11T22:43:38.089Z,67.38
2022-12-11T22:46:07.158Z,67.70
2022-12-11T22:48:33.832Z,68.53
2022-12-11T22:51:06.724Z,68.60
2022-12-11T22:53:35.553Z,69.22
2022-12-11T22:56:05.992Z,67.87
2022-12-11T22:58:35.253Z,67.87
2022-12-11T23:01:08.122Z,68.03
2022-12-11T23:03:34.766Z,68.02
2022-12-11T23:06:11.132Z,68.80
2022-12-11T23:08:40.281Z,67.64
2022-12-11T23:11:11.192Z,67.68
2022-12-11T23:13:37.749Z,66.94
2022-12-11T23:16:04.517Z,66.97
2022-12-11T23:18:31.174Z,67.32
2022-12-11T23:20:57.749Z,67.55
2022-12-11T23:23:29.262Z,67.25
2022-12-11T23:25:56.796Z,67.97
2022-12-11T23:28:25.811Z,68.35
2022-12-11T23:30:52.546Z,67.71
2022-12-11T23:33:19.165Z,68.23
2022-12-11T23:35:48.249Z,69.19
2022-12-11T23:38:14.835Z,68.22
2022-12-11T23:40:44.197Z,67.36
2022-12-11T23:43:13.371Z,67.96
2022-12-11T23:45:40.138Z,68.73
2022-12-11T23:48:09.536Z,68.57
2022-12-11T23:50:36.113Z,68.08
2022-12-11T23:53:02.734Z,66.71
2022-12-11T23:55:29.543Z,67.10
2022-12-11T23:57:56.073Z,67.20
